Time;durP1;ratioP1;P1;durP2;ratioP2;P2;SDS_P1;SDS_P2;PMS_P1;PMS_P2;Temp;Humidity;BMP_temperature;BMP_pressure;BME280_temperature;BME280_humidity;BME280_pressure;Samples;Min_cycle;Max_cycle;Signal;HPM_P1;HPM_P2
2021/03/08 00:00:19;;;;;;;168.15;82.15;;;77.20;1996.80;;;;;;4967411;28;20042;-81
2021/03/08 00:02:47;;;;;;;168.38;88.90;;;77.10;1996.80;;;;;;4971890;28;20023;-81
2021/03/08 00:05:16;;;;;;;197.98;103.28;;;77.20;1996.80;;;;;;4973178;28;20023;-81
2021/03/08 00:07:44;;;;;;;186.50;99.45;;;77.10;1996.80;;;;;;4973620;28;20023;-81
2021/03/08 00:10:11;;;;;;;182.70;97.07;;;77.10;2022.40;;;;;;4973570;28;20038;-81
2021/03/08 00:12:37;;;;;;;147.93;79.10;;;77.20;1996.80;;;;;;4973053;28;20058;-81
2021/03/08 00:15:05;;;;;;;156.68;87.45;;;77.20;1996.80;;;;;;4972440;28;20030;-81
2021/03/08 00:17:32;;;;;;;176.85;101.95;;;77.20;1996.80;;;;;;4971471;28;20062;-81
2021/03/08 00:19:58;;;;;;;186.93;100.05;;;77.10;1996.80;;;;;;4968565;28;20057;-80
2021/03/08 00:22:25;;;;;;;267.55;128.70;;;77.00;2022.40;;;;;;4985522;28;20068;-81
2021/03/08 00:24:51;;;;;;;286.88;147.88;;;76.80;2073.60;;;;;;4987822;28;20095;-80
2021/03/08 00:27:17;;;;;;;292.02;156.32;;;76.90;2048.00;;;;;;4988038;28;20034;-81
2021/03/08 00:29:43;;;;;;;219.68;119.28;;;77.00;2022.40;;;;;;4986545;28;20029;-80
2021/03/08 03:25:46;;;;;;;75.70;43.85;;;0.60;2201.60;;;;;;4964560;29;20051;-78
2021/03/08 03:28:40;;;;;;;90.63;47.15;;;0.50;2201.60;;;;;;4954942;29;20034;-79
2021/03/08 03:32:32;;;;;;;79.15;42.95;;;0.50;2201.60;;;;;;4974197;29;20031;-79
2021/03/08 03:36:12;;;;;;;80.60;44.97;;;0.40;2201.60;;;;;;4964610;29;20041;-80
2021/03/08 03:46:50;;;;;;;101.13;55.05;;;0.80;2201.60;;;;;;4898947;29;20019;-80
2021/03/08 03:50:08;;;;;;;94.97;53.45;;;0.60;2201.60;;;;;;4879718;29;20037;-80
2021/03/08 03:57:36;;;;;;;91.30;49.20;;;0.50;2201.60;;;;;;4843184;29;20091;-78
2021/03/08 04:01:14;;;;;;;108.93;57.50;;;0.60;2201.60;;;;;;4751947;30;20060;-79
2021/03/08 04:04:55;;;;;;;80.13;41.05;;;0.30;2201.60;;;;;;4750808;30;20100;-79
2021/03/08 04:08:39;;;;;;;68.45;36.15;;;0.20;2201.60;;;;;;4788846;30;20594;-79
2021/03/08 04:12:11;;;;;;;69.53;37.92;;;0.20;2201.60;;;;;;4789978;30;20048;-78
2021/03/08 04:19:24;;;;;;;70.55;37.40;;;0.80;2201.60;;;;;;4715195;30;20083;-78
2021/03/08 04:23:02;;;;;;;65.45;35.38;;;13.10;2201.60;;;;;;4720426;30;20034;-79
2021/03/08 04:26:42;;;;;;;91.60;48.72;;;13.20;2201.60;;;;;;4711295;30;20109;-79
2021/03/08 04:30:08;;;;;;;89.28;47.95;;;13.30;2201.60;;;;;;4716360;30;20022;-79
2021/03/08 04:33:43;;;;;;;83.35;44.28;;;13.10;2201.60;;;;;;4702873;30;20073;-80
2021/03/08 04:37:17;;;;;;;131.38;71.47;;;13.10;2201.60;;;;;;4709446;30;20033;-78
2021/03/08 04:44:40;;;;;;;90.50;45.75;;;0.10;2201.60;;;;;;4719506;30;20519;-79
2021/03/08 04:48:03;;;;;;;81.35;42.03;;;0.10;2201.60;;;;;;4717704;30;20034;-79
2021/03/08 04:51:07;;;;;;;82.88;44.42;;;0.00;2201.60;;;;;;4744446;30;20112;-79
2021/03/08 04:54:20;;;;;;;127.00;66.65;;;0.00;2201.60;;;;;;4792809;30;20546;-79
2021/03/08 04:57:54;;;;;;;99.30;56.00;;;0.00;2201.60;;;;;;4787358;30;20112;-79
2021/03/08 05:12:29;;;;;;;82.47;47.08;;;13.00;2201.60;;;;;;4864010;29;20058;-78
2021/03/08 05:23:03;;;;;;;77.78;42.47;;;12.90;2201.60;;;;;;4919334;29;20022;-78
2021/03/08 05:26:32;;;;;;;111.57;60.10;;;13.00;2201.60;;;;;;4903170;29;20036;-78
2021/03/08 05:29:56;;;;;;;115.75;60.63;;;12.90;2201.60;;;;;;4865714;29;20064;-78
2021/03/08 05:33:34;;;;;;;177.40;91.97;;;0.10;2201.60;;;;;;4872850;29;20131;-78
2021/03/08 05:37:11;;;;;;;116.72;58.20;;;13.00;2201.60;;;;;;4865731;29;20041;-79
2021/03/08 05:40:17;;;;;;;99.75;52.10;;;13.10;2201.60;;;;;;4865870;29;20456;-79
2021/03/08 05:44:03;;;;;;;94.95;53.30;;;13.50;2201.60;;;;;;4878303;29;20033;-79
2021/03/08 05:47:49;;;;;;;89.10;54.28;;;13.60;2201.60;;;;;;4811188;29;20039;-79
2021/03/08 05:51:22;;;;;;;82.03;45.22;;;13.50;2201.60;;;;;;4771750;30;20015;-80
2021/03/08 06:11:25;;;;;;;88.63;48.33;;;13.20;2201.60;;;;;;4810206;29;20057;-79
2021/03/08 06:14:21;;;;;;;;;;;13.10;2201.60;;;;;;4833746;29;20039;-79
2021/03/08 06:18:00;;;;;;;79.13;44.22;;;13.00;2201.60;;;;;;4830727;29;19923;-79
2021/03/08 06:39:06;;;;;;;111.18;64.07;;;0.40;2201.60;;;;;;4828359;29;20037;-80
2021/03/08 06:56:42;;;;;;;123.35;74.13;;;25.80;2201.60;;;;;;4901578;29;20064;-80
2021/03/08 07:00:19;;;;;;;158.73;93.43;;;25.80;2201.60;;;;;;4897525;29;20041;-81
2021/03/08 08:58:21;;;;;;;59.50;37.67;;;179.20;1843.20;;;;;;5046042;23;20047;-78
2021/03/08 09:01:13;;;;;;;52.45;35.13;;;179.30;1868.80;;;;;;4985224;28;20039;-78
2021/03/08 09:03:59;;;;;;;61.45;38.50;;;179.50;1817.60;;;;;;4970487;28;20054;-79
2021/03/08 09:07:00;;;;;;;60.40;39.30;;;179.70;1817.60;;;;;;4965112;28;20026;-78
2021/03/08 09:09:32;;;;;;;59.75;39.95;;;179.90;1792.00;;;;;;4991774;28;20039;-79
2021/03/08 09:12:06;;;;;;;65.53;37.23;;;180.10;1740.80;;;;;;4941156;28;20106;-79
2021/03/08 09:14:38;;;;;;;57.33;36.92;;;180.10;1792.00;;;;;;4945455;28;20114;-79
2021/03/08 09:17:25;;;;;;;48.10;32.38;;;205.40;1766.40;;;;;;4958277;28;20029;-78
2021/03/08 09:19:57;;;;;;;54.90;33.67;;;205.00;1740.80;;;;;;4958406;28;20041;-79
2021/03/08 09:22:23;;;;;;;56.80;35.47;;;205.20;1715.20;;;;;;4956718;28;20027;-82
2021/03/08 09:24:50;;;;;;;54.78;35.67;;;205.20;1740.80;;;;;;4958383;28;20038;-82
2021/03/08 09:27:36;;;;;;;48.40;31.15;;;205.30;1715.20;;;;;;4954217;28;20384;-80
2021/03/08 09:30:29;;;;;;;53.10;34.95;;;205.30;1689.60;;;;;;4953472;28;20031;-82
2021/03/08 09:33:22;;;;;;;57.90;33.03;;;205.50;1689.60;;;;;;4972391;28;20368;-81
2021/03/08 09:35:50;;;;;;;67.57;42.77;;;205.60;1715.20;;;;;;4953894;28;20031;-80
2021/03/08 09:38:21;;;;;;;96.65;58.05;;;205.60;1715.20;;;;;;4956815;28;20023;-79
2021/03/08 09:40:52;;;;;;;85.75;51.83;;;205.70;1715.20;;;;;;4959996;28;20052;-82
2021/03/08 09:44:13;;;;;;;82.18;50.95;;;205.70;1689.60;;;;;;4977349;28;20101;-81
2021/03/08 09:47:30;;;;;;;47.92;31.75;;;230.40;1689.60;;;;;;4958139;29;20374;-84
2021/03/08 09:50:18;;;;;;;43.85;27.38;;;230.60;1715.20;;;;;;4956801;29;20102;-83
2021/03/08 09:52:46;;;;;;;41.13;25.73;;;230.80;1715.20;;;;;;4950003;28;20023;-86
2021/03/08 09:55:16;;;;;;;45.38;26.95;;;231.00;1715.20;;;;;;4960217;28;20030;-84
2021/03/08 09:57:44;;;;;;;65.78;45.00;;;231.10;1664.00;;;;;;4955723;29;20051;-84
2021/03/08 10:00:11;;;;;;;52.10;36.05;;;231.10;1612.80;;;;;;4956724;29;20066;-83
2021/03/08 10:02:37;;;;;;;48.45;32.35;;;231.30;1612.80;;;;;;4957201;29;20389;-85
2021/03/08 10:05:12;;;;;;;37.65;25.40;;;231.30;1612.80;;;;;;4956685;29;20027;-86
2021/03/08 10:07:55;;;;;;;40.53;27.13;;;256.00;1536.00;;;;;;4955593;29;20035;-85
2021/03/08 10:10:23;;;;;;;40.45;29.10;;;256.20;1536.00;;;;;;4956712;29;20027;-85
2021/03/08 10:13:00;;;;;;;40.65;25.88;;;256.40;1561.60;;;;;;4939923;29;20477;-84
2021/03/08 10:15:26;;;;;;;38.13;24.90;;;256.60;1536.00;;;;;;4956560;29;20106;-87
2021/03/08 10:17:59;;;;;;;34.00;23.95;;;256.70;1484.80;;;;;;4956704;29;20408;-86
2021/03/08 10:20:27;;;;;;;37.70;25.70;;;256.80;1433.60;;;;;;4958031;29;20031;-87
2021/03/08 10:22:54;;;;;;;40.92;27.00;;;256.80;1433.60;;;;;;4956844;29;20038;-89
2021/03/08 10:25:21;;;;;;;29.73;20.52;;;281.60;1408.00;;;;;;4951516;28;20035;-88
2021/03/08 10:27:54;;;;;;;30.55;21.15;;;281.70;1356.80;;;;;;4953494;29;20477;-86
2021/03/08 10:30:21;;;;;;;29.55;20.63;;;281.60;1356.80;;;;;;4954102;29;20031;-84
2021/03/08 10:32:48;;;;;;;34.40;23.20;;;281.70;1331.20;;;;;;4952534;29;20035;-84
2021/03/08 10:35:15;;;;;;;52.13;45.97;;;282.10;1280.00;;;;;;4939461;29;20484;-84
2021/03/08 10:37:42;;;;;;;39.45;23.58;;;282.20;1280.00;;;;;;4940213;29;20031;-86
2021/03/08 10:40:09;;;;;;;30.77;20.33;;;282.40;1382.40;;;;;;4955884;29;20039;-85
2021/03/08 10:42:38;;;;;;;52.55;35.33;;;307.30;1356.80;;;;;;4955933;28;20035;-81
2021/03/08 10:45:08;;;;;;;63.97;43.25;;;307.30;1382.40;;;;;;4955779;29;20461;-84
2021/03/08 10:47:34;;;;;;;42.63;28.42;;;307.30;1433.60;;;;;;4940080;29;20034;-85
2021/03/08 10:50:01;;;;;;;33.05;24.25;;;307.20;1433.60;;;;;;4940628;29;20036;-83
2021/03/08 10:52:27;;;;;;;43.60;25.98;;;307.20;1433.60;;;;;;4955020;29;20023;-85
2021/03/08 10:54:53;;;;;;;30.17;19.25;;;307.20;1433.60;;;;;;4940355;29;20031;-83
2021/03/08 10:57:20;;;;;;;41.60;29.60;;;307.50;1382.40;;;;;;4954751;29;20056;-85
2021/03/08 10:59:50;;;;;;;32.15;22.17;;;307.60;1382.40;;;;;;4955858;29;20062;-84
2021/03/08 11:02:18;;;;;;;37.17;21.30;;;307.70;1356.80;;;;;;4939993;29;20035;-85
2021/03/08 11:04:45;;;;;;;27.83;18.67;;;307.70;1382.40;;;;;;4939837;29;20536;-83
2021/03/08 11:07:12;;;;;;;28.42;18.65;;;307.80;1331.20;;;;;;4955397;29;20027;-84
2021/03/08 11:09:43;;;;;;;29.60;22.23;;;308.00;1305.60;;;;;;4939999;29;20038;-82
2021/03/08 11:12:18;;;;;;;22.73;16.27;;;307.90;1305.60;;;;;;4956290;29;20027;-81
2021/03/08 11:14:56;;;;;;;25.35;18.02;;;308.00;1280.00;;;;;;4939166;29;20488;-84
2021/03/08 11:17:43;;;;;;;31.42;19.10;;;307.90;1331.20;;;;;;4956053;29;20086;-87
2021/03/08 11:20:22;;;;;;;31.27;18.15;;;307.90;1280.00;;;;;;4955504;29;20027;-82
2021/03/08 11:23:08;;;;;;;26.70;17.23;;;307.90;1280.00;;;;;;4955670;29;20035;-80
2021/03/08 11:25:42;;;;;;;27.35;18.02;;;308.10;1228.80;;;;;;4954237;28;20031;-82
2021/03/08 11:28:11;;;;;;;27.85;19.02;;;332.90;1356.80;;;;;;4939314;29;20031;-82
2021/03/08 11:30:38;;;;;;;30.70;18.90;;;333.10;1280.00;;;;;;4949567;29;20031;-84
2021/03/08 11:33:10;;;;;;;27.90;19.08;;;333.20;1228.80;;;;;;4951944;29;20078;-84
2021/03/08 11:35:37;;;;;;;22.98;14.43;;;333.50;1203.20;;;;;;4948390;29;20031;-83
2021/03/08 11:38:10;;;;;;;27.33;16.38;;;333.30;1177.60;;;;;;4970835;28;20074;-81
2021/03/08 11:40:42;;;;;;;25.80;19.35;;;333.60;1177.60;;;;;;4955176;29;20382;-84
2021/03/08 11:43:08;;;;;;;31.38;20.15;;;358.60;1126.40;;;;;;4956472;29;20031;-82
2021/03/08 11:45:34;;;;;;;25.25;16.25;;;358.90;1177.60;;;;;;4939175;29;20366;-80
2021/03/08 11:48:01;;;;;;;21.25;15.05;;;358.90;1100.80;;;;;;4956801;29;20357;-88
2021/03/08 11:50:30;;;;;;;23.52;16.55;;;359.10;1152.00;;;;;;4954841;29;20122;-82
2021/03/08 11:52:57;;;;;;;26.17;17.42;;;384.00;1100.80;;;;;;4955128;29;20556;-84
2021/03/08 11:55:23;;;;;;;25.20;16.98;;;384.30;1126.40;;;;;;4954538;28;20031;-82
2021/03/08 11:57:50;;;;;;;35.78;20.70;;;384.70;1100.80;;;;;;4948570;28;20142;-82
2021/03/08 12:00:26;;;;;;;30.92;21.05;;;409.60;1126.40;;;;;;4974259;28;20038;-84
2021/03/08 12:02:53;;;;;;;30.10;15.75;;;410.00;1177.60;;;;;;4975296;28;20121;-80
2021/03/08 12:05:19;;;;;;;24.48;15.80;;;409.70;1049.60;;;;;;4957919;28;20106;-84
2021/03/08 12:07:45;;;;;;;28.70;14.52;;;384.60;1024.00;;;;;;4975333;28;20114;-81
2021/03/08 12:10:14;;;;;;;20.70;14.25;;;384.70;1024.00;;;;;;4957654;28;20121;-79
2021/03/08 12:12:41;;;;;;;23.20;13.18;;;384.90;1024.00;;;;;;4958134;28;20031;-82
2021/03/08 12:15:09;;;;;;;26.58;15.95;;;384.60;1024.00;;;;;;4975274;28;20033;-82
2021/03/08 12:17:35;;;;;;;21.15;14.77;;;409.80;1075.20;;;;;;4957600;28;20082;-83
2021/03/08 12:20:02;;;;;;;22.23;15.40;;;410.00;1075.20;;;;;;4957732;28;20113;-83
2021/03/08 12:22:28;;;;;;;27.10;18.15;;;410.00;998.40;;;;;;4955785;28;20041;-82
2021/03/08 12:24:54;;;;;;;25.83;18.58;;;409.70;972.80;;;;;;4957038;28;20027;-80
2021/03/08 12:27:19;;;;;;;20.88;15.15;;;410.00;972.80;;;;;;4957234;28;20089;-80
2021/03/08 12:29:45;;;;;;;36.95;27.38;;;410.00;1024.00;;;;;;4957379;28;20105;-79
2021/03/08 12:32:11;;;;;;;24.25;18.15;;;410.40;998.40;;;;;;4973967;28;20039;-78
2021/03/08 12:34:37;;;;;;;19.42;13.77;;;435.30;998.40;;;;;;4974717;28;20081;-79
2021/03/08 12:37:03;;;;;;;16.92;10.63;;;435.60;998.40;;;;;;4957566;28;20073;-79
2021/03/08 12:39:29;;;;;;;17.33;10.80;;;435.90;972.80;;;;;;4957158;28;20189;-82
2021/03/08 12:41:55;;;;;;;19.25;12.13;;;435.80;896.00;;;;;;4957375;28;20037;-81
2021/03/08 12:44:21;;;;;;;74.10;34.40;;;435.80;844.80;;;;;;4974186;28;20031;-78
2021/03/08 12:46:47;;;;;;;24.15;14.50;;;435.70;819.20;;;;;;4974621;28;20543;-79
2021/03/08 12:49:13;;;;;;;25.35;17.25;;;435.90;844.80;;;;;;4957456;28;20118;-79
2021/03/08 12:51:39;;;;;;;23.05;19.27;;;436.10;870.40;;;;;;4974814;28;20173;-78
2021/03/08 12:54:04;;;;;;;13.68;9.30;;;435.90;768.00;;;;;;4974844;28;20030;-86
2021/03/08 12:56:30;;;;;;;23.15;15.63;;;435.90;793.60;;;;;;4957304;28;20031;-84
2021/03/08 12:58:56;;;;;;;16.85;12.15;;;435.80;819.20;;;;;;4953727;29;20051;-79
2021/03/08 13:01:22;;;;;;;22.48;14.55;;;435.60;793.60;;;;;;4954929;29;20126;-77
2021/03/08 13:03:48;;;;;;;17.63;12.73;;;435.80;870.40;;;;;;4955769;29;20389;-83
2021/03/08 13:06:13;;;;;;;24.75;19.17;;;435.80;768.00;;;;;;4953980;28;20090;-79
2021/03/08 13:08:39;;;;;;;19.50;13.52;;;435.90;768.00;;;;;;4957935;29;20024;-83
2021/03/08 13:11:05;;;;;;;23.42;14.75;;;436.10;819.20;;;;;;4957243;29;20023;-80
2021/03/08 13:13:31;;;;;;;19.05;14.45;;;436.00;793.60;;;;;;4956752;29;20023;-80
2021/03/08 13:15:57;;;;;;;18.05;14.98;;;435.90;768.00;;;;;;4959117;29;20035;-80
2021/03/08 13:18:22;;;;;;;17.02;12.57;;;435.80;768.00;;;;;;4957721;29;20034;-82
2021/03/08 13:20:49;;;;;;;18.73;12.70;;;436.00;819.20;;;;;;4957205;29;20481;-82
2021/03/08 13:23:15;;;;;;;24.67;15.02;;;436.10;768.00;;;;;;4957485;28;20122;-82
2021/03/08 13:25:41;;;;;;;33.30;21.80;;;436.00;768.00;;;;;;4957556;29;20122;-77
2021/03/08 13:28:07;;;;;;;24.40;16.85;;;460.80;819.20;;;;;;4957165;29;20031;-81
2021/03/08 13:30:33;;;;;;;21.58;16.30;;;460.80;793.60;;;;;;4957533;29;20074;-75
2021/03/08 13:32:59;;;;;;;33.30;23.02;;;460.80;793.60;;;;;;4957210;29;20486;-81
2021/03/08 13:35:26;;;;;;;24.98;15.90;;;436.10;768.00;;;;;;4953028;29;20023;-79
2021/03/08 13:37:52;;;;;;;13.40;11.45;;;460.90;793.60;;;;;;4958126;29;20026;-83
2021/03/08 13:40:18;;;;;;;14.35;8.32;;;436.10;768.00;;;;;;4951136;29;20035;-82
2021/03/08 13:42:44;;;;;;;16.33;11.20;;;460.90;793.60;;;;;;4958213;29;20122;-80
2021/03/08 13:45:11;;;;;;;22.75;16.98;;;436.10;768.00;;;;;;4955400;29;20484;-80
2021/03/08 13:47:38;;;;;;;19.95;14.40;;;435.90;768.00;;;;;;4955731;29;20059;-77
2021/03/08 13:50:05;;;;;;;19.55;13.18;;;436.10;819.20;;;;;;4954241;29;20996;-79
2021/03/08 13:52:31;;;;;;;22.35;12.90;;;461.00;819.20;;;;;;4953259;29;20477;-81
2021/03/08 13:54:57;;;;;;;18.73;11.73;;;461.20;819.20;;;;;;4956944;29;20028;-78
2021/03/08 13:57:23;;;;;;;14.43;9.07;;;461.40;793.60;;;;;;4955824;29;20059;-80
2021/03/08 13:59:49;;;;;;;11.52;7.20;;;461.20;819.20;;;;;;4957471;29;20031;-79
2021/03/08 14:02:15;;;;;;;23.25;12.82;;;461.10;793.60;;;;;;4957702;29;20035;-79
2021/03/08 14:04:40;;;;;;;14.18;9.23;;;460.80;793.60;;;;;;4957870;29;20469;-79
2021/03/08 14:07:06;;;;;;;15.63;10.27;;;435.80;742.40;;;;;;4956538;28;20031;-77
2021/03/08 14:09:32;;;;;;;19.73;16.48;;;435.30;768.00;;;;;;4956429;29;20095;-78
2021/03/08 14:11:58;;;;;;;13.95;10.40;;;435.30;768.00;;;;;;4956389;29;20514;-83
2021/03/08 14:14:23;;;;;;;19.45;12.93;;;435.30;768.00;;;;;;4956781;29;20114;-79
2021/03/08 14:16:49;;;;;;;24.15;14.63;;;435.20;768.00;;;;;;4956371;29;20027;-81
2021/03/08 14:19:15;;;;;;;21.65;15.10;;;435.20;819.20;;;;;;4955358;28;20473;-79
2021/03/08 14:21:41;;;;;;;31.38;21.38;;;410.30;768.00;;;;;;4956443;29;20035;-80
2021/03/08 14:24:07;;;;;;;23.15;15.52;;;410.00;793.60;;;;;;4956178;28;20078;-79
2021/03/08 14:26:33;;;;;;;20.75;13.10;;;409.90;793.60;;;;;;4956472;29;20043;-78
2021/03/08 14:28:59;;;;;;;14.70;10.57;;;409.60;793.60;;;;;;4957706;29;20027;-79
2021/03/08 14:31:25;;;;;;;23.45;14.77;;;384.90;768.00;;;;;;4956102;28;20031;-80
2021/03/08 14:33:51;;;;;;;27.17;20.17;;;384.70;742.40;;;;;;4956103;29;20034;-79
2021/03/08 14:36:17;;;;;;;26.77;18.17;;;384.60;742.40;;;;;;4957375;29;20028;-80
2021/03/08 14:38:42;;;;;;;19.75;12.18;;;384.60;742.40;;;;;;4955952;29;20034;-80
2021/03/08 14:41:08;;;;;;;23.13;15.30;;;384.40;742.40;;;;;;4957737;29;20027;-78
2021/03/08 14:43:34;;;;;;;23.63;13.40;;;384.20;768.00;;;;;;4955696;29;20027;-81
2021/03/08 14:46:00;;;;;;;20.10;14.63;;;384.00;716.80;;;;;;4956048;29;20031;-77
2021/03/08 14:48:25;;;;;;;20.92;15.30;;;359.20;716.80;;;;;;4956012;29;20034;-84
2021/03/08 14:50:51;;;;;;;18.30;13.20;;;359.10;742.40;;;;;;4956347;29;20594;-82
2021/03/08 14:53:17;;;;;;;23.48;16.63;;;358.90;716.80;;;;;;4956072;29;20063;-84
2021/03/08 14:55:43;;;;;;;26.05;17.25;;;358.80;768.00;;;;;;4955988;29;20050;-81
2021/03/08 14:58:08;;;;;;;38.15;25.50;;;358.80;768.00;;;;;;4968996;28;20125;-78
2021/03/08 15:00:34;;;;;;;41.38;33.40;;;358.70;793.60;;;;;;4959099;28;20035;-80
2021/03/08 15:03:00;;;;;;;57.15;42.80;;;358.60;819.20;;;;;;4959011;28;20049;-83
2021/03/08 15:05:26;;;;;;;58.55;41.50;;;358.60;793.60;;;;;;4958736;28;20029;-80
2021/03/08 15:07:51;;;;;;;49.35;40.42;;;358.40;819.20;;;;;;4958979;28;20405;-80
2021/03/08 15:10:17;;;;;;;32.28;25.70;;;333.70;819.20;;;;;;4976611;28;20077;-81
2021/03/08 15:12:44;;;;;;;35.03;28.77;;;333.60;819.20;;;;;;4975841;28;20483;-79
2021/03/08 15:15:11;;;;;;;38.20;29.08;;;333.60;844.80;;;;;;4958832;28;20035;-82
2021/03/08 15:17:39;;;;;;;36.85;24.15;;;333.60;844.80;;;;;;4958391;28;20027;-79
2021/03/08 15:20:08;;;;;;;40.63;26.25;;;333.50;844.80;;;;;;4958507;28;20117;-78
2021/03/08 15:22:34;;;;;;;44.80;32.28;;;333.40;896.00;;;;;;4956999;28;20089;-81
2021/03/08 15:25:00;;;;;;;44.33;29.00;;;333.30;896.00;;;;;;4959434;28;20027;-85
2021/03/08 15:27:26;;;;;;;40.33;27.77;;;333.20;896.00;;;;;;4956739;28;20030;-84
2021/03/08 15:29:52;;;;;;;42.72;28.38;;;333.10;921.60;;;;;;4974438;28;20074;-82
2021/03/08 15:32:17;;;;;;;46.35;32.40;;;333.00;921.60;;;;;;4958587;28;20117;-84
2021/03/08 15:34:43;;;;;;;48.17;34.03;;;333.00;921.60;;;;;;4976279;28;20038;-82
2021/03/08 15:37:09;;;;;;;38.28;27.70;;;332.90;947.20;;;;;;4974475;28;20030;-83
2021/03/08 15:39:36;;;;;;;44.70;32.20;;;332.80;947.20;;;;;;4975636;28;20058;-84
2021/03/08 15:42:02;;;;;;;38.67;27.67;;;332.80;947.20;;;;;;4974812;28;20503;-86
2021/03/08 15:44:29;;;;;;;41.30;32.28;;;308.10;947.20;;;;;;4958458;28;20041;-85
2021/03/08 15:46:55;;;;;;;46.13;32.38;;;308.10;972.80;;;;;;4958228;28;20027;-84
2021/03/08 15:49:20;;;;;;;42.08;28.42;;;308.10;972.80;;;;;;4975755;28;20096;-86
2021/03/08 15:51:46;;;;;;;39.33;27.65;;;308.00;972.80;;;;;;4958396;28;20110;-85
2021/03/08 15:54:12;;;;;;;42.88;29.10;;;307.90;972.80;;;;;;4975391;28;20037;-84
2021/03/08 15:56:37;;;;;;;41.08;28.83;;;307.80;972.80;;;;;;4958219;28;20030;-85
2021/03/08 15:59:03;;;;;;;37.50;28.20;;;307.80;998.40;;;;;;4958410;28;20033;-87
2021/03/08 16:01:29;;;;;;;35.80;24.77;;;307.70;998.40;;;;;;4975490;28;20435;-85
2021/03/08 16:03:55;;;;;;;41.85;30.15;;;307.60;998.40;;;;;;4975661;28;20479;-85
2021/03/08 16:06:21;;;;;;;43.28;29.98;;;307.50;1024.00;;;;;;4958438;28;20376;-86
2021/03/08 16:08:47;;;;;;;46.95;32.45;;;307.40;1024.00;;;;;;4973891;28;20392;-88
2021/03/08 16:11:13;;;;;;;44.15;31.00;;;307.30;1024.00;;;;;;4975145;28;20023;-83
2021/03/08 16:13:39;;;;;;;47.05;35.03;;;307.20;1049.60;;;;;;4957729;28;20030;-83
2021/03/08 16:16:06;;;;;;;62.47;43.00;;;307.20;1049.60;;;;;;4957073;28;20095;-84
2021/03/08 16:18:33;;;;;;;61.50;42.70;;;307.20;1049.60;;;;;;4955754;28;20576;-88
2021/03/08 16:20:59;;;;;;;54.58;35.85;;;282.40;1024.00;;;;;;4953792;29;20543;-80
2021/03/08 16:23:25;;;;;;;50.95;36.55;;;282.40;1024.00;;;;;;4960843;28;20030;-82
2021/03/08 16:25:51;;;;;;;71.20;49.10;;;282.30;1049.60;;;;;;4957876;28;20030;-84
2021/03/08 16:28:16;;;;;;;73.20;48.72;;;282.30;1049.60;;;;;;4957026;28;20089;-80
2021/03/08 16:30:42;;;;;;;76.63;51.10;;;282.20;1049.60;;;;;;4954768;28;20062;-87
2021/03/08 16:33:08;;;;;;;85.55;52.67;;;282.20;1075.20;;;;;;4957749;28;20125;-86
2021/03/08 16:35:36;;;;;;;77.68;50.90;;;282.10;1049.60;;;;;;4957047;28;20403;-80
2021/03/08 16:38:03;;;;;;;81.00;55.38;;;282.10;1049.60;;;;;;4956998;28;20034;-84
2021/03/08 16:40:29;;;;;;;83.43;53.78;;;282.00;1049.60;;;;;;4957660;28;20042;-81
2021/03/08 16:42:56;;;;;;;67.40;46.47;;;282.00;1075.20;;;;;;4977625;28;20031;-81
2021/03/08 16:45:22;;;;;;;60.70;41.97;;;281.90;1049.60;;;;;;4961391;28;20066;-84
2021/03/08 16:47:47;;;;;;;64.90;45.67;;;281.90;1075.20;;;;;;4978733;28;20022;-85
2021/03/08 16:50:14;;;;;;;72.57;47.40;;;281.80;1075.20;;;;;;4961148;28;20031;-86
2021/03/08 16:52:42;;;;;;;63.30;43.60;;;281.80;1100.80;;;;;;4977891;28;20042;-88
2021/03/08 16:55:10;;;;;;;59.83;41.47;;;281.70;1100.80;;;;;;4961192;28;21402;-89
2021/03/08 16:57:36;;;;;;;73.95;50.50;;;256.80;1075.20;;;;;;4957149;28;20051;-86
2021/03/08 17:00:05;;;;;;;63.75;43.70;;;256.60;1100.80;;;;;;4958231;28;20035;-83
2021/03/08 17:02:31;;;;;;;53.40;39.40;;;256.50;1100.80;;;;;;4960712;28;20077;-78
2021/03/08 17:04:56;;;;;;;48.03;32.80;;;256.50;1126.40;;;;;;4959742;28;20117;-78
2021/03/08 17:07:22;;;;;;;61.60;41.80;;;256.40;1126.40;;;;;;4961355;28;20027;-89
2021/03/08 17:09:48;;;;;;;54.25;36.78;;;256.40;1126.40;;;;;;4959819;28;20129;-89
2021/03/08 17:12:14;;;;;;;61.97;41.65;;;256.30;1126.40;;;;;;4961346;28;20031;-87
2021/03/08 17:14:40;;;;;;;60.47;43.22;;;256.20;1126.40;;;;;;4960609;28;20027;-86
2021/03/08 17:17:06;;;;;;;52.63;37.63;;;256.10;1152.00;;;;;;4961688;28;20033;-87
2021/03/08 17:19:32;;;;;;;39.33;29.67;;;256.10;1152.00;;;;;;4960500;28;20370;-88
2021/03/08 17:21:57;;;;;;;35.88;26.02;;;231.30;1152.00;;;;;;4960066;28;20042;-86
2021/03/08 17:24:23;;;;;;;30.85;21.88;;;231.30;1152.00;;;;;;4959458;28;20435;-88
2021/03/08 17:26:49;;;;;;;40.22;22.85;;;231.30;1152.00;;;;;;4961550;28;20042;-86
2021/03/08 17:29:15;;;;;;;29.38;21.95;;;231.30;1126.40;;;;;;4960362;28;20151;-86
2021/03/08 17:31:41;;;;;;;32.97;23.50;;;231.30;1152.00;;;;;;4960647;28;20034;-82
2021/03/08 17:34:07;;;;;;;34.88;24.52;;;231.20;1152.00;;;;;;4961026;28;20027;-84
2021/03/08 17:36:32;;;;;;;29.05;22.17;;;231.10;1152.00;;;;;;4960839;28;20026;-86
2021/03/08 17:38:58;;;;;;;24.92;20.45;;;231.00;1126.40;;;;;;4960356;28;20113;-84
2021/03/08 17:41:24;;;;;;;30.15;21.90;;;231.00;1152.00;;;;;;4960801;28;20031;-87
2021/03/08 17:43:50;;;;;;;90.03;57.33;;;230.90;1177.60;;;;;;4960804;28;20033;-84
2021/03/08 17:46:16;;;;;;;151.27;89.07;;;230.80;1177.60;;;;;;4960238;28;20055;-83
2021/03/08 17:48:41;;;;;;;219.70;122.97;;;230.90;1152.00;;;;;;4960338;28;20046;-82
2021/03/08 17:51:07;;;;;;;171.35;98.63;;;230.90;1152.00;;;;;;4960343;28;20038;-80
2021/03/08 17:53:33;;;;;;;135.60;82.97;;;230.80;1152.00;;;;;;4959774;28;20042;-82
2021/03/08 17:55:59;;;;;;;158.98;99.43;;;230.80;1177.60;;;;;;4960969;28;20445;-79
2021/03/08 17:58:25;;;;;;;124.78;74.55;;;230.60;1203.20;;;;;;4960167;28;20481;-79
2021/03/08 18:00:50;;;;;;;113.10;66.97;;;230.60;1203.20;;;;;;4959906;28;20387;-82
2021/03/08 18:03:16;;;;;;;95.20;59.88;;;230.60;1177.60;;;;;;4960055;28;20460;-82
2021/03/08 18:05:42;;;;;;;85.00;55.03;;;230.40;1177.60;;;;;;4960156;28;20118;-84
2021/03/08 18:08:08;;;;;;;93.63;62.22;;;230.50;1203.20;;;;;;4960001;28;20114;-79
2021/03/08 18:10:34;;;;;;;92.50;61.38;;;230.50;1203.20;;;;;;4960069;28;20030;-80
2021/03/08 18:13:00;;;;;;;151.00;96.25;;;230.50;1203.20;;;;;;4958732;28;20031;-87
2021/03/08 18:15:26;;;;;;;165.93;105.70;;;230.50;1228.80;;;;;;4960371;28;20121;-86
2021/03/08 18:17:52;;;;;;;155.93;100.90;;;230.50;1228.80;;;;;;4960342;28;20109;-84
2021/03/08 18:20:19;;;;;;;124.70;78.50;;;205.70;1254.40;;;;;;4959961;28;20057;-84
2021/03/08 18:22:45;;;;;;;111.18;76.25;;;205.60;1254.40;;;;;;4959953;28;20492;-84
2021/03/08 18:25:12;;;;;;;126.60;73.93;;;205.60;1254.40;;;;;;4959810;28;20031;-85
2021/03/08 18:27:38;;;;;;;80.90;55.35;;;205.60;1254.40;;;;;;4959860;28;20066;-87
2021/03/08 18:30:05;;;;;;;87.22;56.88;;;205.50;1280.00;;;;;;4959835;28;20436;-82
2021/03/08 18:32:31;;;;;;;84.65;56.00;;;205.40;1280.00;;;;;;4960542;28;20031;-82
2021/03/08 18:34:57;;;;;;;91.38;58.45;;;205.50;1280.00;;;;;;4959396;28;20042;-83
2021/03/08 18:37:23;;;;;;;96.32;59.70;;;205.40;1280.00;;;;;;4959669;28;20026;-85
2021/03/08 18:39:48;;;;;;;140.00;75.18;;;205.20;1305.60;;;;;;4959398;28;20041;-85
2021/03/08 18:42:14;;;;;;;154.30;89.03;;;205.30;1305.60;;;;;;4959271;28;20149;-81
2021/03/08 18:44:40;;;;;;;141.50;84.30;;;205.20;1305.60;;;;;;4959471;28;20085;-82
2021/03/08 18:47:06;;;;;;;112.10;68.90;;;205.20;1331.20;;;;;;4959742;28;20023;-82
2021/03/08 18:49:32;;;;;;;104.97;69.32;;;205.20;1331.20;;;;;;4959718;28;20121;-84
2021/03/08 18:51:59;;;;;;;111.53;73.57;;;205.00;1305.60;;;;;;4960855;28;20055;-84
2021/03/08 18:54:24;;;;;;;112.32;72.68;;;204.90;1331.20;;;;;;4960988;28;20026;-83
2021/03/08 18:56:50;;;;;;;127.85;87.30;;;204.80;1331.20;;;;;;4958965;28;20097;-81
2021/03/08 18:59:18;;;;;;;185.45;120.97;;;180.00;1331.20;;;;;;4959404;28;20125;-81